Time;durP1;ratioP1;P1;durP2;ratioP2;P2;SDS_P1;SDS_P2;PMS_P1;PMS_P2;Temp;Humidity;BMP_temperature;BMP_pressure;BME280_temperature;BME280_humidity;BME280_pressure;Samples;Min_cycle;Max_cycle;Signal;HPM_P1;HPM_P2
2023/03/07 00:02:10;;;;;;;4.25;0.90;;;4.20;99.90;;;;;;5063158;28;20532;-65
2023/03/07 00:04:36;;;;;;;3.30;0.70;;;4.20;99.90;;;;;;5031918;28;20125;-65
2023/03/07 00:07:01;;;;;;;2.03;0.60;;;4.20;99.90;;;;;;5030388;28;20116;-65
2023/03/07 00:09:27;;;;;;;2.20;0.70;;;4.20;99.90;;;;;;5029635;28;20045;-65
2023/03/07 00:11:53;;;;;;;2.00;0.57;;;4.20;99.90;;;;;;5031679;28;20116;-65
2023/03/07 00:14:19;;;;;;;4.28;0.70;;;4.20;99.90;;;;;;5063651;28;20053;-64
2023/03/07 00:16:45;;;;;;;3.58;0.60;;;4.20;99.90;;;;;;5042885;28;20044;-64
2023/03/07 00:19:10;;;;;;;5.55;0.95;;;4.20;99.90;;;;;;5050228;28;20112;-64
2023/03/07 00:21:36;;;;;;;4.30;1.30;;;4.30;99.90;;;;;;5050359;28;20448;-65
2023/03/07 00:24:03;;;;;;;9.32;2.58;;;4.30;99.90;;;;;;5049201;28;20080;-64
2023/03/07 00:26:29;;;;;;;3.58;1.00;;;4.30;99.90;;;;;;5050144;28;20126;-65
2023/03/07 00:28:55;;;;;;;5.95;1.25;;;4.30;99.90;;;;;;5049410;28;20474;-65
2023/03/07 00:31:22;;;;;;;4.88;1.23;;;4.20;99.90;;;;;;5051235;28;20397;-65
2023/03/07 00:33:48;;;;;;;4.28;1.30;;;4.20;99.90;;;;;;5049933;28;20044;-65
2023/03/07 00:36:16;;;;;;;4.72;1.27;;;4.20;99.90;;;;;;5050323;28;20437;-65
2023/03/07 00:38:42;;;;;;;7.78;1.20;;;4.30;99.90;;;;;;5032953;28;20125;-65
2023/03/07 00:41:11;;;;;;;12.15;1.60;;;4.20;99.90;;;;;;5049718;28;20056;-65
2023/03/07 00:43:37;;;;;;;4.57;1.58;;;4.20;99.90;;;;;;5049144;28;20084;-65
2023/03/07 00:46:04;;;;;;;5.65;1.50;;;4.30;99.90;;;;;;5049621;28;20048;-65
2023/03/07 00:48:33;;;;;;;6.35;1.38;;;4.30;99.90;;;;;;5049640;28;20093;-65
2023/03/07 00:50:59;;;;;;;5.13;1.30;;;4.30;99.90;;;;;;5050130;28;20485;-65
2023/03/07 00:53:25;;;;;;;5.97;2.10;;;4.30;99.90;;;;;;5050980;28;20170;-65
2023/03/07 00:55:59;;;;;;;3.50;1.88;;;4.30;99.90;;;;;;5050896;28;20041;-65
2023/03/07 00:58:30;;;;;;;8.43;1.52;;;4.30;99.90;;;;;;5048759;28;20041;-65
2023/03/07 01:00:56;;;;;;;8.00;1.60;;;4.30;99.90;;;;;;5050723;28;20044;-65
2023/03/07 01:03:23;;;;;;;6.70;1.35;;;4.30;99.90;;;;;;5050452;28;20044;-66
2023/03/07 01:05:49;;;;;;;9.45;1.23;;;4.30;99.90;;;;;;5049647;28;20066;-65
2023/03/07 01:08:16;;;;;;;6.65;2.03;;;4.20;99.90;;;;;;5049122;28;20124;-65
2023/03/07 01:10:42;;;;;;;9.95;2.88;;;4.20;99.90;;;;;;5050519;28;20045;-65
2023/03/07 01:13:09;;;;;;;7.45;1.90;;;4.20;99.90;;;;;;5050728;28;20385;-65
2023/03/07 01:15:35;;;;;;;7.03;1.05;;;4.20;99.90;;;;;;5050605;28;20095;-65
2023/03/07 01:18:03;;;;;;;10.27;1.92;;;4.10;99.90;;;;;;5048570;28;20043;-65
2023/03/07 01:20:33;;;;;;;7.10;1.90;;;4.10;99.90;;;;;;5050463;28;20045;-65
2023/03/07 01:22:59;;;;;;;9.55;1.40;;;4.10;99.90;;;;;;5048999;28;20057;-66
2023/03/07 01:25:25;;;;;;;11.40;1.70;;;4.10;99.90;;;;;;5031883;28;20118;-65
2023/03/07 01:27:51;;;;;;;7.40;1.55;;;4.00;99.90;;;;;;5050363;28;20127;-65
2023/03/07 01:30:17;;;;;;;11.82;1.80;;;4.10;99.90;;;;;;5049976;28;20044;-65
2023/03/07 01:32:43;;;;;;;11.38;1.95;;;4.10;99.90;;;;;;5048307;28;20645;-65
2023/03/07 01:35:09;;;;;;;11.00;1.55;;;4.10;99.90;;;;;;5048959;28;20120;-65
2023/03/07 01:37:35;;;;;;;9.48;1.83;;;4.10;99.90;;;;;;5050039;28;20044;-65
2023/03/07 01:40:01;;;;;;;11.80;1.48;;;4.00;99.90;;;;;;5049892;28;20382;-65
2023/03/07 01:42:30;;;;;;;8.10;1.67;;;4.00;99.90;;;;;;5049258;28;20045;-65
2023/03/07 01:45:03;;;;;;;11.55;1.42;;;4.00;99.90;;;;;;5049173;28;20111;-65
2023/03/07 01:47:29;;;;;;;11.23;1.73;;;4.10;99.90;;;;;;5048305;28;20136;-65
2023/03/07 01:49:57;;;;;;;8.80;1.48;;;4.00;99.90;;;;;;5032147;28;20127;-65
2023/03/07 01:52:31;;;;;;;16.92;1.77;;;4.10;99.90;;;;;;5048952;28;20098;-65
2023/03/07 01:55:15;;;;;;;10.95;1.50;;;4.10;99.90;;;;;;5031858;28;20358;-65
2023/03/07 01:57:43;;;;;;;12.60;1.88;;;4.10;99.90;;;;;;5049994;28;20067;-65
2023/03/07 02:00:21;;;;;;;10.20;1.75;;;4.10;99.90;;;;;;5048076;28;20068;-65
2023/03/07 02:02:52;;;;;;;9.43;1.50;;;4.10;99.90;;;;;;5048599;28;20493;-65
2023/03/07 02:05:26;;;;;;;17.33;1.80;;;4.10;99.90;;;;;;5048436;28;20041;-65
2023/03/07 02:07:54;;;;;;;13.45;1.95;;;4.10;99.90;;;;;;5048313;28;20047;-65
2023/03/07 02:10:22;;;;;;;11.95;2.22;;;4.10;99.90;;;;;;5048589;28;20045;-65
2023/03/07 02:12:50;;;;;;;11.25;1.52;;;4.10;99.90;;;;;;5048584;28;20052;-65
2023/03/07 02:15:16;;;;;;;16.67;1.75;;;4.10;99.90;;;;;;5049503;28;20124;-65
2023/03/07 02:17:43;;;;;;;8.18;1.70;;;4.20;99.90;;;;;;5049994;28;20133;-65
2023/03/07 02:20:20;;;;;;;10.73;1.98;;;4.20;99.90;;;;;;5048485;28;20037;-65
2023/03/07 02:22:48;;;;;;;6.90;1.52;;;4.10;99.90;;;;;;5047964;28;20061;-65
2023/03/07 02:25:19;;;;;;;6.97;1.98;;;4.10;99.90;;;;;;5031945;28;20044;-65
2023/03/07 02:27:46;;;;;;;11.38;1.77;;;4.10;99.90;;;;;;5048135;28;20048;-65
2023/03/07 02:30:12;;;;;;;12.02;2.33;;;4.10;99.90;;;;;;5048526;28;20045;-65
2023/03/07 02:32:37;;;;;;;7.13;2.08;;;4.00;99.90;;;;;;5031575;28;20128;-65
2023/03/07 02:35:15;;;;;;;8.77;2.00;;;4.00;99.90;;;;;;5047857;28;20048;-65
2023/03/07 02:37:44;;;;;;;9.63;1.90;;;3.90;99.90;;;;;;5048676;28;20677;-65
2023/03/07 02:40:13;;;;;;;6.28;2.15;;;3.90;99.90;;;;;;5048649;28;20053;-65
2023/03/07 02:42:41;;;;;;;9.65;1.80;;;3.90;99.90;;;;;;5048655;28;20489;-65
2023/03/07 02:45:10;;;;;;;9.55;2.10;;;3.80;99.90;;;;;;5052049;28;20049;-65
2023/03/07 02:47:37;;;;;;;7.22;1.58;;;3.70;99.90;;;;;;5051929;28;20497;-65
2023/03/07 02:50:04;;;;;;;9.48;2.22;;;3.70;99.90;;;;;;5051266;28;20086;-65
2023/03/07 02:52:30;;;;;;;5.57;1.08;;;3.60;99.90;;;;;;5053260;28;20099;-65
2023/03/07 02:54:57;;;;;;;8.02;1.55;;;3.60;99.90;;;;;;5053248;28;20036;-65
2023/03/07 02:57:23;;;;;;;13.88;3.58;;;3.50;99.90;;;;;;5051228;28;20048;-65
2023/03/07 02:59:48;;;;;;;8.15;1.75;;;3.50;99.90;;;;;;5051789;28;20045;-65
2023/03/07 03:02:14;;;;;;;8.18;1.30;;;3.50;99.90;;;;;;5051688;28;20041;-65
2023/03/07 03:04:40;;;;;;;6.53;1.33;;;3.60;99.90;;;;;;5050933;28;20048;-65
2023/03/07 03:07:06;;;;;;;10.77;1.30;;;3.60;99.90;;;;;;5051639;28;20053;-65
2023/03/07 03:09:32;;;;;;;10.02;1.17;;;3.60;99.90;;;;;;5051871;28;20048;-65
2023/03/07 03:11:58;;;;;;;5.78;1.33;;;3.60;99.90;;;;;;5050905;28;20393;-65
2023/03/07 03:14:24;;;;;;;4.55;1.10;;;3.60;99.90;;;;;;5052928;28;20032;-65
2023/03/07 03:16:52;;;;;;;7.47;1.30;;;3.60;99.90;;;;;;5050724;28;20052;-65
2023/03/07 03:19:18;;;;;;;13.50;2.33;;;3.60;99.90;;;;;;5052884;28;20036;-65
2023/03/07 03:21:43;;;;;;;7.88;1.30;;;3.60;99.90;;;;;;5051562;28;20524;-65
2023/03/07 03:24:10;;;;;;;6.30;1.55;;;3.60;99.90;;;;;;5051926;28;20737;-65
2023/03/07 03:26:37;;;;;;;9.10;1.65;;;3.60;99.90;;;;;;5052520;28;20044;-65
2023/03/07 03:29:04;;;;;;;9.23;1.88;;;3.60;99.90;;;;;;5052506;28;20119;-65
2023/03/07 03:31:31;;;;;;;8.57;1.50;;;3.60;99.90;;;;;;5051588;28;20045;-65
2023/03/07 03:33:57;;;;;;;8.93;1.45;;;3.60;99.90;;;;;;5050849;28;20045;-65
2023/03/07 03:36:25;;;;;;;9.55;2.35;;;3.70;99.90;;;;;;5050965;28;20037;-65
2023/03/07 03:38:55;;;;;;;6.93;1.30;;;3.70;99.90;;;;;;5033969;28;20102;-65
2023/03/07 03:41:22;;;;;;;10.15;1.83;;;3.80;99.90;;;;;;5050981;28;20052;-65
2023/03/07 03:43:48;;;;;;;8.27;1.50;;;3.80;99.90;;;;;;5052360;28;20393;-65
2023/03/07 03:46:15;;;;;;;9.95;1.40;;;3.80;99.90;;;;;;5051584;28;20037;-65
2023/03/07 03:48:41;;;;;;;9.32;2.47;;;3.80;99.90;;;;;;5051040;28;20428;-65
2023/03/07 03:51:11;;;;;;;9.73;1.35;;;3.80;99.90;;;;;;5050643;28;20052;-65
2023/03/07 03:53:38;;;;;;;10.88;3.20;;;3.80;99.90;;;;;;5051252;28;20054;-65
2023/03/07 03:56:07;;;;;;;11.95;1.48;;;3.80;99.90;;;;;;5050669;28;20037;-65
2023/03/07 03:58:34;;;;;;;8.68;2.08;;;3.80;99.90;;;;;;5050934;28;20428;-65
2023/03/07 04:01:04;;;;;;;8.68;1.00;;;3.80;99.90;;;;;;5049916;28;20537;-65
2023/03/07 04:03:34;;;;;;;;;;;3.70;99.90;;;;;;5051062;28;20363;-65
2023/03/07 04:06:05;;;;;;;9.38;2.10;;;3.70;99.90;;;;;;5066529;28;19916;-65
2023/03/07 04:08:32;;;;;;;11.10;2.97;;;3.70;99.90;;;;;;5051641;28;20722;-65
2023/03/07 04:10:57;;;;;;;11.52;1.50;;;3.70;99.90;;;;;;5050586;28;20041;-65
2023/03/07 04:13:23;;;;;;;9.70;1.60;;;3.70;99.90;;;;;;5049817;28;20399;-65
2023/03/07 04:15:51;;;;;;;7.63;1.08;;;3.70;99.90;;;;;;5033886;28;20099;-65
2023/03/07 04:18:17;;;;;;;9.45;1.35;;;3.70;99.90;;;;;;5051652;28;20041;-65
2023/03/07 04:20:44;;;;;;;7.65;1.10;;;3.70;99.90;;;;;;5050946;28;20041;-66
2023/03/07 04:23:10;;;;;;;8.00;1.05;;;3.70;99.90;;;;;;5050087;28;20049;-65
2023/03/07 04:25:36;;;;;;;7.40;1.25;;;3.70;99.90;;;;;;5051345;28;20063;-65
2023/03/07 04:28:02;;;;;;;7.32;1.17;;;3.70;99.90;;;;;;5049504;28;20037;-65
2023/03/07 04:30:28;;;;;;;7.95;0.98;;;3.70;99.90;;;;;;5050005;28;20124;-65
2023/03/07 04:32:54;;;;;;;12.30;1.20;;;3.70;99.90;;;;;;5033269;28;20041;-65
2023/03/07 04:35:20;;;;;;;5.85;1.10;;;3.70;99.90;;;;;;5049358;28;20048;-65
2023/03/07 04:37:45;;;;;;;4.93;0.90;;;3.70;99.90;;;;;;5051033;28;20405;-65
2023/03/07 04:40:12;;;;;;;7.25;1.08;;;3.70;99.90;;;;;;5050151;28;20440;-65
2023/03/07 04:42:38;;;;;;;7.15;1.00;;;3.70;99.90;;;;;;5049564;28;20066;-65
2023/03/07 04:45:04;;;;;;;8.75;1.90;;;3.70;99.90;;;;;;5050075;28;20123;-65
2023/03/07 04:47:30;;;;;;;6.65;1.00;;;3.70;99.90;;;;;;5051179;28;20101;-65
2023/03/07 04:49:55;;;;;;;8.30;1.50;;;3.70;99.90;;;;;;5049025;28;20041;-65
2023/03/07 04:52:21;;;;;;;6.32;0.98;;;3.70;99.90;;;;;;5049544;28;20069;-65
2023/03/07 04:54:47;;;;;;;10.40;1.20;;;3.70;99.90;;;;;;5050272;28;20037;-65
2023/03/07 04:57:13;;;;;;;10.05;1.42;;;3.70;99.90;;;;;;5049522;28;20120;-65
2023/03/07 04:59:38;;;;;;;6.38;1.20;;;3.70;99.90;;;;;;5049546;28;20134;-65
2023/03/07 05:02:06;;;;;;;8.02;1.33;;;3.70;99.90;;;;;;5032330;28;20044;-65
2023/03/07 05:04:32;;;;;;;6.78;2.20;;;3.60;99.90;;;;;;5049583;28;20037;-65
2023/03/07 05:06:58;;;;;;;4.43;1.02;;;3.60;99.90;;;;;;5048648;28;20048;-65
2023/03/07 05:09:24;;;;;;;9.10;1.65;;;3.60;99.90;;;;;;5048735;28;20564;-65
2023/03/07 05:11:50;;;;;;;8.55;1.40;;;3.60;99.90;;;;;;5049244;28;20047;-65
2023/03/07 05:14:15;;;;;;;8.98;1.50;;;3.60;99.90;;;;;;5048024;28;20121;-65
2023/03/07 05:16:41;;;;;;;4.63;1.25;;;3.70;99.90;;;;;;5047813;28;20116;-65
2023/03/07 05:19:08;;;;;;;10.48;1.63;;;3.70;99.90;;;;;;5048444;28;20041;-65
2023/03/07 05:21:34;;;;;;;7.72;1.40;;;3.70;99.90;;;;;;5047979;28;20045;-65
2023/03/07 05:24:00;;;;;;;10.77;1.58;;;3.70;99.90;;;;;;5047254;28;20115;-65
2023/03/07 05:26:25;;;;;;;6.78;1.40;;;3.70;99.90;;;;;;5047964;28;20442;-65
2023/03/07 05:28:51;;;;;;;8.13;1.40;;;3.70;99.90;;;;;;5049360;28;20123;-65
2023/03/07 05:31:17;;;;;;;8.52;1.30;;;3.70;99.90;;;;;;5047248;28;20048;-65
2023/03/07 05:33:43;;;;;;;9.07;1.55;;;3.70;99.90;;;;;;5049239;28;20047;-65
2023/03/07 05:36:08;;;;;;;5.45;1.20;;;3.70;99.90;;;;;;5047946;28;20037;-65
2023/03/07 05:38:34;;;;;;;7.32;1.20;;;3.80;99.90;;;;;;5047195;28;20041;-65
2023/03/07 05:41:00;;;;;;;4.93;0.95;;;3.80;99.90;;;;;;5048973;28;20033;-66
2023/03/07 05:43:26;;;;;;;7.82;1.13;;;3.70;99.90;;;;;;5047875;28;20056;-65
2023/03/07 05:45:52;;;;;;;7.07;1.10;;;3.50;99.90;;;;;;5047129;28;20049;-65
2023/03/07 05:48:18;;;;;;;8.02;1.25;;;3.30;99.90;;;;;;5049032;28;20040;-65
2023/03/07 05:50:44;;;;;;;8.00;1.83;;;3.20;99.90;;;;;;5047361;28;20040;-65
2023/03/07 05:53:10;;;;;;;10.55;1.05;;;3.10;99.90;;;;;;5047542;28;20052;-65
2023/03/07 05:55:36;;;;;;;5.38;0.90;;;3.10;99.90;;;;;;5047632;28;20485;-65
2023/03/07 05:58:02;;;;;;;9.98;1.33;;;3.00;99.90;;;;;;5048764;28;20666;-65
2023/03/07 06:00:28;;;;;;;4.43;0.95;;;3.00;99.90;;;;;;5047882;28;20157;-65
2023/03/07 06:02:54;;;;;;;7.40;1.45;;;3.00;99.90;;;;;;5048987;28;20456;-65
2023/03/07 06:05:19;;;;;;;5.40;1.55;;;3.00;99.90;;;;;;5048317;28;20123;-65
2023/03/07 06:07:45;;;;;;;6.38;1.20;;;3.00;99.90;;;;;;5048898;28;20125;-65
2023/03/07 06:10:12;;;;;;;10.45;1.30;;;3.10;99.90;;;;;;5032076;28;20067;-65
2023/03/07 06:12:37;;;;;;;7.18;1.80;;;3.10;99.90;;;;;;5048032;28;20049;-65
2023/03/07 06:15:04;;;;;;;8.82;1.45;;;3.20;99.90;;;;;;5048632;28;20037;-64
2023/03/07 06:17:29;;;;;;;12.73;1.38;;;3.20;99.90;;;;;;5050592;28;20124;-64
2023/03/07 06:19:55;;;;;;;7.55;1.38;;;3.30;99.90;;;;;;5035306;28;20155;-65
2023/03/07 06:22:21;;;;;;;6.82;1.60;;;3.30;99.90;;;;;;5052167;28;20053;-65
2023/03/07 06:24:47;;;;;;;11.98;1.70;;;3.30;99.90;;;;;;5035864;28;20041;-66
2023/03/07 06:27:13;;;;;;;7.20;1.42;;;3.30;99.90;;;;;;5051865;28;20053;-65
2023/03/07 06:29:39;;;;;;;13.27;1.52;;;3.40;99.90;;;;;;5052205;28;20079;-66
2023/03/07 06:32:05;;;;;;;11.07;1.42;;;3.40;99.90;;;;;;5052420;28;20577;-66
2023/03/07 06:34:30;;;;;;;5.88;1.63;;;3.40;99.90;;;;;;5050544;28;20124;-66
2023/03/07 06:36:56;;;;;;;10.57;1.38;;;3.40;99.90;;;;;;5051138;28;20120;-66
2023/03/07 06:39:22;;;;;;;6.25;0.95;;;3.40;99.90;;;;;;5051029;28;20041;-66
2023/03/07 06:41:49;;;;;;;7.13;1.20;;;3.40;99.90;;;;;;5050659;28;20044;-66
2023/03/07 06:44:16;;;;;;;9.73;1.63;;;3.30;99.90;;;;;;5051147;28;20036;-66
2023/03/07 06:46:43;;;;;;;10.45;1.42;;;3.30;99.90;;;;;;5050869;28;20549;-66
2023/03/07 06:49:09;;;;;;;6.18;1.52;;;3.30;99.90;;;;;;5034328;28;20116;-66
2023/03/07 06:51:35;;;;;;;8.02;1.50;;;3.30;99.90;;;;;;5051896;28;20166;-66
2023/03/07 06:54:00;;;;;;;12.10;1.88;;;3.20;99.90;;;;;;5050134;28;20562;-66
2023/03/07 06:56:28;;;;;;;8.70;1.73;;;3.30;99.90;;;;;;5052159;28;20037;-65
2023/03/07 06:58:54;;;;;;;8.55;1.50;;;3.30;99.90;;;;;;5051962;28;20045;-65
2023/03/07 07:01:24;;;;;;;5.50;1.30;;;3.40;99.90;;;;;;5051972;28;20056;-64
2023/03/07 07:03:50;;;;;;;7.50;1.50;;;3.40;99.90;;;;;;5052692;28;20048;-65
2023/03/07 07:06:15;;;;;;;6.20;1.35;;;3.40;99.90;;;;;;5052673;28;20041;-65
2023/03/07 07:08:41;;;;;;;10.13;1.23;;;3.50;99.90;;;;;;5050931;28;20040;-65
2023/03/07 07:11:07;;;;;;;7.25;1.40;;;3.50;99.90;;;;;;5034776;28;20072;-65
2023/03/07 07:13:33;;;;;;;10.70;2.67;;;3.50;99.90;;;;;;5051462;28;20037;-65
2023/03/07 07:16:08;;;;;;;6.72;1.52;;;3.60;99.90;;;;;;5050781;28;20037;-65
2023/03/07 07:18:34;;;;;;;6.45;1.50;;;3.60;99.90;;;;;;5051358;28;20052;-65
2023/03/07 07:21:00;;;;;;;10.85;1.58;;;3.60;99.90;;;;;;5051281;28;20115;-65
2023/03/07 07:23:26;;;;;;;9.90;1.70;;;3.60;99.90;;;;;;5050454;28;20148;-65
2023/03/07 07:25:52;;;;;;;7.80;1.25;;;3.70;99.90;;;;;;5052584;28;20039;-65
2023/03/07 07:28:18;;;;;;;7.53;1.98;;;3.70;99.90;;;;;;5051683;28;20037;-65
2023/03/07 07:30:44;;;;;;;8.10;1.35;;;3.70;99.90;;;;;;5051685;28;20103;-65
2023/03/07 07:33:09;;;;;;;10.30;1.45;;;3.70;99.90;;;;;;5052179;28;20037;-65
2023/03/07 07:35:35;;;;;;;5.18;1.30;;;3.70;99.90;;;;;;5052146;28;20029;-65
2023/03/07 07:38:02;;;;;;;13.23;1.85;;;3.80;99.90;;;;;;5049933;28;20033;-65
2023/03/07 07:40:28;;;;;;;7.53;1.55;;;3.80;99.90;;;;;;5051124;28;20123;-64
2023/03/07 07:42:53;;;;;;;6.68;1.30;;;3.80;99.90;;;;;;5049200;28;20113;-65
2023/03/07 07:45:23;;;;;;;8.35;1.35;;;3.80;99.90;;;;;;5051018;28;20045;-65
2023/03/07 07:47:50;;;;;;;10.38;1.80;;;3.80;99.90;;;;;;5049943;28;20037;-64
2023/03/07 07:50:21;;;;;;;7.32;1.33;;;3.80;99.90;;;;;;5048582;28;20045;-64
2023/03/07 07:52:48;;;;;;;9.55;1.50;;;3.90;99.90;;;;;;5048712;28;20627;-64
2023/03/07 07:55:14;;;;;;;5.07;1.08;;;3.90;99.90;;;;;;5049579;28;20037;-64
2023/03/07 07:57:41;;;;;;;4.88;1.20;;;3.90;99.90;;;;;;5048883;28;20044;-65
2023/03/07 08:00:09;;;;;;;5.28;1.00;;;4.00;99.90;;;;;;5050641;28;20044;-64
2023/03/07 08:02:36;;;;;;;11.77;1.10;;;4.00;99.90;;;;;;5050474;28;20501;-65
2023/03/07 08:05:03;;;;;;;6.35;0.77;;;4.00;99.90;;;;;;5050343;28;20041;-65
2023/03/07 08:07:29;;;;;;;5.05;0.95;;;4.10;99.90;;;;;;5051375;28;20045;-64
2023/03/07 08:09:55;;;;;;;8.35;1.70;;;4.10;99.90;;;;;;5050379;28;20132;-65
2023/03/07 08:12:20;;;;;;;6.70;0.80;;;4.10;99.90;;;;;;5050992;28;20076;-65
2023/03/07 08:14:46;;;;;;;3.55;0.70;;;4.10;99.90;;;;;;5051655;28;20037;-64
2023/03/07 08:17:12;;;;;;;4.65;0.63;;;4.10;99.90;;;;;;5051702;28;20477;-64
2023/03/07 08:19:37;;;;;;;3.95;0.93;;;4.10;99.90;;;;;;5049828;28;20485;-65
2023/03/07 08:22:03;;;;;;;8.95;0.93;;;4.10;99.90;;;;;;5050182;28;20489;-65
2023/03/07 08:24:33;;;;;;;5.28;1.17;;;4.10;99.90;;;;;;5049798;28;20057;-66
2023/03/07 08:26:59;;;;;;;4.88;1.45;;;4.20;99.90;;;;;;5049426;28;20501;-65
2023/03/07 08:29:26;;;;;;;4.47;0.82;;;4.20;99.90;;;;;;5049981;28;20102;-65
2023/03/07 08:31:53;;;;;;;8.82;1.52;;;4.20;99.90;;;;;;5050558;28;20056;-65
2023/03/07 08:34:19;;;;;;;5.97;0.77;;;4.30;99.90;;;;;;5050830;28;20102;-65
2023/03/07 08:36:45;;;;;;;3.50;0.73;;;4.30;99.90;;;;;;5033054;28;20048;-65
2023/03/07 08:39:11;;;;;;;2.67;0.80;;;4.30;99.90;;;;;;5050444;28;20103;-65
2023/03/07 08:41:38;;;;;;;6.32;0.80;;;4.40;99.90;;;;;;5050006;28;20544;-65
2023/03/07 08:44:05;;;;;;;3.85;1.00;;;4.40;99.90;;;;;;5051005;28;20037;-65
2023/03/07 08:46:35;;;;;;;3.45;1.38;;;4.40;99.90;;;;;;5050265;28;20431;-64
2023/03/07 08:49:02;;;;;;;4.93;0.57;;;4.40;99.90;;;;;;5051063;28;20413;-65
2023/03/07 08:51:28;;;;;;;3.05;0.60;;;4.40;99.90;;;;;;5050769;28;20033;-65
2023/03/07 08:53:58;;;;;;;4.53;0.73;;;4.40;99.90;;;;;;5049283;28;20037;-71
2023/03/07 08:56:24;;;;;;;5.72;1.00;;;4.50;99.90;;;;;;5049437;28;20071;-71
2023/03/07 08:58:53;;;;;;;4.57;0.73;;;4.50;99.90;;;;;;5050860;28;20069;-70
2023/03/07 09:01:20;;;;;;;3.75;0.98;;;4.50;99.90;;;;;;5049220;28;20045;-65
2023/03/07 09:03:49;;;;;;;4.38;0.60;;;4.50;99.90;;;;;;5050425;28;20052;-65
2023/03/07 09:06:18;;;;;;;5.00;0.60;;;4.60;99.90;;;;;;5050414;28;20037;-72
2023/03/07 09:08:46;;;;;;;2.38;0.50;;;4.70;99.90;;;;;;5048535;28;20493;-72
2023/03/07 09:11:12;;;;;;;4.95;1.05;;;4.80;99.90;;;;;;5044431;28;20048;-72
2023/03/07 09:13:38;;;;;;;4.00;0.75;;;4.80;99.90;;;;;;5050571;28;20383;-71
2023/03/07 09:16:05;;;;;;;3.45;0.68;;;4.90;99.90;;;;;;5048368;28;20120;-72
2023/03/07 09:18:31;;;;;;;3.05;0.77;;;4.90;99.90;;;;;;5049015;28;20051;-71
2023/03/07 09:21:00;;;;;;;5.35;0.90;;;4.90;99.90;;;;;;5048598;28;20052;-71
2023/03/07 09:23:26;;;;;;;3.95;1.13;;;4.60;99.90;;;;;;5043324;28;20060;-72
2023/03/07 09:25:52;;;;;;;8.70;1.08;;;4.40;99.90;;;;;;5062498;28;20046;-72
2023/03/07 09:28:18;;;;;;;5.68;1.10;;;4.20;99.90;;;;;;5063396;28;20494;-72
2023/03/07 09:30:44;;;;;;;5.85;1.20;;;4.00;99.90;;;;;;5042231;28;20073;-72
2023/03/07 09:33:09;;;;;;;3.63;1.10;;;4.00;99.90;;;;;;5029956;28;20095;-72
2023/03/07 09:35:37;;;;;;;5.30;1.13;;;3.90;99.90;;;;;;5061493;28;20402;-72
2023/03/07 09:38:03;;;;;;;3.67;1.17;;;4.00;99.90;;;;;;5029675;28;20037;-72
2023/03/07 09:40:29;;;;;;;8.10;1.20;;;4.10;99.90;;;;;;5050067;28;20115;-73
2023/03/07 09:43:13;;;;;;;8.27;1.20;;;4.10;99.90;;;;;;5049701;28;20116;-73
2023/03/07 09:45:58;;;;;;;4.60;1.00;;;4.20;99.90;;;;;;5050115;28;20106;-73
2023/03/07 09:48:39;;;;;;;5.38;1.10;;;4.20;99.90;;;;;;5048867;28;20370;-71
2023/03/07 09:51:31;;;;;;;8.50;2.05;;;4.30;99.90;;;;;;5048091;28;20045;-73
2023/03/07 09:54:15;;;;;;;6.22;1.30;;;4.30;99.90;;;;;;5052903;28;20048;-73
2023/03/07 09:56:55;;;;;;;4.72;1.10;;;4.40;99.90;;;;;;5052225;28;20049;-72
2023/03/07 09:59:35;;;;;;;;;;;4.40;99.90;;;;;;5053568;28;20037;-72
2023/03/07 10:02:30;;;;;;;6.80;1.13;;;4.40;99.90;;;;;;5086105;28;19942;-73
2023/03/07 10:05:17;;;;;;;7.03;0.88;;;4.50;99.90;;;;;;5035719;28;20049;-72
2023/03/07 10:07:43;;;;;;;5.60;1.25;;;4.60;99.90;;;;;;5054259;28;20033;-73
2023/03/07 10:10:18;;;;;;;8.32;1.33;;;4.70;99.90;;;;;;5052440;28;20136;-65
2023/03/07 10:13:04;;;;;;;4.47;1.42;;;4.70;99.90;;;;;;5053998;28;20095;-65
2023/03/07 10:15:51;;;;;;;5.85;1.20;;;4.90;99.90;;;;;;5052707;28;20560;-65
2023/03/07 10:18:17;;;;;;;6.53;0.88;;;5.00;99.90;;;;;;5051924;28;20102;-65
2023/03/07 10:21:13;;;;;;;6.43;1.92;;;5.10;99.90;;;;;;5051332;28;20041;-65
2023/03/07 10:24:00;;;;;;;5.50;1.70;;;5.20;99.90;;;;;;5053363;28;20504;-65
2023/03/07 10:26:32;;;;;;;3.08;0.82;;;5.40;99.90;;;;;;5052445;28;20138;-72
2023/03/07 10:29:01;;;;;;;4.93;1.23;;;5.60;99.90;;;;;;5051393;28;20052;-73
2023/03/07 10:31:36;;;;;;;5.43;1.17;;;5.60;99.90;;;;;;5052494;28;20041;-73
2023/03/07 10:34:20;;;;;;;9.65;2.90;;;5.50;99.90;;;;;;5031965;28;20084;-73
2023/03/07 10:36:49;;;;;;;20.70;9.43;;;5.70;99.90;;;;;;5032447;28;20037;-72
2023/03/07 10:39:45;;;;;;;6.63;2.73;;;5.80;99.90;;;;;;5033026;28;20038;-73
2023/03/07 10:42:13;;;;;;;9.35;2.47;;;5.80;99.90;;;;;;5033426;28;20048;-73
2023/03/07 10:44:40;;;;;;;7.20;1.75;;;5.90;99.90;;;;;;5031575;28;20057;-73
2023/03/07 10:47:21;;;;;;;6.95;1.70;;;6.00;99.90;;;;;;5030745;28;20041;-72
2023/03/07 10:49:50;;;;;;;6.07;2.97;;;6.00;99.90;;;;;;5064850;28;20043;-72
2023/03/07 10:52:24;;;;;;;7.78;2.25;;;6.10;99.90;;;;;;5064032;28;20095;-70
2023/03/07 10:54:50;;;;;;;6.75;2.33;;;6.10;99.90;;;;;;5050744;28;20033;-71
2023/03/07 10:57:17;;;;;;;7.13;1.67;;;6.20;99.90;;;;;;5051983;28;20127;-71
2023/03/07 10:59:49;;;;;;;3.70;1.50;;;6.20;99.90;;;;;;5051383;28;20106;-72
2023/03/07 11:02:35;;;;;;;7.45;2.53;;;6.20;99.90;;;;;;5050898;28;20128;-71
2023/03/07 11:05:16;;;;;;;6.68;2.10;;;6.30;99.90;;;;;;5049602;28;20363;-67
2023/03/07 11:07:42;;;;;;;6.00;1.30;;;6.30;99.90;;;;;;5051025;28;20040;-72
2023/03/07 11:10:33;;;;;;;8.00;2.10;;;6.30;99.90;;;;;;5050405;28;20045;-73
2023/03/07 11:13:18;;;;;;;7.85;1.67;;;6.30;99.90;;;;;;5049849;28;20044;-73
2023/03/07 11:15:45;;;;;;;9.52;2.45;;;6.30;99.90;;;;;;5052497;28;20550;-72
2023/03/07 11:18:37;;;;;;;7.70;1.67;;;6.30;99.90;;;;;;5034848;28;20557;-72
2023/03/07 11:21:04;;;;;;;7.20;1.48;;;6.20;99.90;;;;;;5034246;28;20098;-72
2023/03/07 11:23:30;;;;;;;8.68;1.88;;;6.40;99.90;;;;;;5051848;28;20488;-69
2023/03/07 11:26:20;;;;;;;10.32;1.35;;;6.50;99.90;;;;;;5051803;28;20072;-73
2023/03/07 11:28:46;;;;;;;7.35;1.85;;;6.60;99.90;;;;;;5051344;28;20398;-72
2023/03/07 11:31:42;;;;;;;9.18;1.75;;;6.80;99.90;;;;;;5051553;28;20037;-72
2023/03/07 11:34:14;;;;;;;5.07;0.90;;;7.10;99.90;;;;;;5050971;28;20417;-72
2023/03/07 11:36:42;;;;;;;10.20;1.80;;;7.20;99.90;;;;;;5049056;28;20804;-72
2023/03/07 11:39:43;;;;;;;6.93;1.15;;;7.20;99.90;;;;;;5050475;28;20071;-72
2023/03/07 11:42:47;;;;;;;8.48;1.30;;;6.90;99.90;;;;;;5049262;28;20041;-71
2023/03/07 11:45:38;;;;;;;4.97;1.00;;;6.80;99.90;;;;;;5050810;28;20486;-72
2023/03/07 11:48:26;;;;;;;8.68;2.08;;;6.70;99.90;;;;;;5017912;28;20067;-72
2023/03/07 11:50:58;;;;;;;5.97;1.10;;;6.60;99.90;;;;;;5032282;28;20048;-72
2023/03/07 11:53:40;;;;;;;5.95;1.30;;;6.50;99.90;;;;;;5040163;28;20069;-71
2023/03/07 11:56:39;;;;;;;4.90;1.20;;;6.40;99.90;;;;;;5031654;28;20108;-71
2023/03/07 11:59:27;;;;;;;5.10;1.20;;;6.10;99.90;;;;;;5031961;28;20034;-71
2023/03/07 12:02:01;;;;;;;5.70;1.83;;;5.70;99.90;;;;;;5030117;28;20047;-71
2023/03/07 12:04:35;;;;;;;7.50;1.10;;;5.50;99.90;;;;;;5031679;28;20045;-71
2023/03/07 12:07:15;;;;;;;8.38;1.38;;;5.30;99.90;;;;;;5030615;28;20516;-71
2023/03/07 12:09:41;;;;;;;6.53;1.35;;;5.10;99.90;;;;;;5029954;28;20049;-72
2023/03/07 12:12:31;;;;;;;9.73;2.20;;;5.10;99.90;;;;;;5031824;28;20041;-71
2023/03/07 12:15:15;;;;;;;9.23;1.63;;;5.10;99.90;;;;;;5030155;28;20513;-72
2023/03/07 12:17:47;;;;;;;9.07;1.27;;;5.10;99.90;;;;;;5013321;28;20056;-72
2023/03/07 12:20:13;;;;;;;7.82;2.35;;;5.20;99.90;;;;;;5031585;28;20041;-72
2023/03/07 12:23:03;;;;;;;5.05;1.08;;;5.30;99.90;;;;;;5013383;28;20103;-72
2023/03/07 12:25:37;;;;;;;7.70;1.60;;;5.50;99.90;;;;;;5063461;28;20124;-72
2023/03/07 12:28:21;;;;;;;9.15;1.20;;;5.60;99.90;;;;;;5031429;28;20053;-72
2023/03/07 12:31:09;;;;;;;8.35;1.50;;;5.80;99.90;;;;;;5061703;28;20038;-70
2023/03/07 12:33:57;;;;;;;8.45;1.02;;;5.90;99.90;;;;;;5063385;28;20490;-72
2023/03/07 12:36:26;;;;;;;4.95;1.88;;;6.00;99.90;;;;;;5029865;28;20034;-72
2023/03/07 12:39:06;;;;;;;8.25;1.10;;;6.00;99.90;;;;;;5030491;28;20033;-70
2023/03/07 12:41:51;;;;;;;;;;;6.10;99.90;;;;;;5079343;28;20095;-73
2023/03/07 12:44:32;;;;;;;9.95;1.83;;;6.20;99.90;;;;;;5050568;28;19925;-71
2023/03/07 12:47:14;;;;;;;5.97;1.42;;;6.20;99.90;;;;;;5049643;28;20083;-72
2023/03/07 12:50:03;;;;;;;7.20;1.77;;;6.20;99.90;;;;;;5049510;28;20056;-71
2023/03/07 12:52:39;;;;;;;3.95;1.33;;;6.30;99.90;;;;;;5049740;28;20044;-72
2023/03/07 12:55:23;;;;;;;4.28;1.20;;;6.20;99.90;;;;;;5050743;28;20074;-71
2023/03/07 12:58:16;;;;;;;6.93;1.33;;;6.20;99.90;;;;;;5049123;28;20041;-72
2023/03/07 13:00:49;;;;;;;7.47;1.85;;;6.20;99.90;;;;;;5032753;28;20409;-72
2023/03/07 13:03:28;;;;;;;8.23;1.30;;;6.20;99.90;;;;;;5050097;28;20389;-71
2023/03/07 13:05:54;;;;;;;5.32;1.30;;;6.10;99.90;;;;;;5048628;28;20517;-71
2023/03/07 13:08:22;;;;;;;2.63;1.00;;;6.10;99.90;;;;;;5031317;28;20056;-72
2023/03/07 13:10:48;;;;;;;5.05;0.85;;;6.10;99.90;;;;;;5045919;28;20049;-72